Time;durP1;ratioP1;P1;durP2;ratioP2;P2;SDS_P1;SDS_P2;PMS_P1;PMS_P2;Temp;Humidity;BMP_temperature;BMP_pressure;BME280_temperature;BME280_humidity;BME280_pressure;Samples;Min_cycle;Max_cycle;Signal;HPM_P1;HPM_P2
2022/11/01 00:01:30;;;;;;;11.13;7.63;;;13.30;99.90;;;;;;5103101;28;20269;-71
2022/11/01 00:03:57;;;;;;;19.57;8.10;;;13.30;99.90;;;;;;5100971;28;20204;-72
2022/11/01 00:06:25;;;;;;;15.47;7.47;;;13.30;98.80;;;;;;5083713;28;20281;-71
2022/11/01 00:08:52;;;;;;;14.20;7.53;;;13.30;80.50;;;;;;5067777;28;20208;-71
2022/11/01 00:11:19;;;;;;;16.40;7.20;;;13.50;45.30;;;;;;5091167;28;20584;-69
2022/11/01 00:13:47;;;;;;;16.67;6.97;;;13.60;12.90;;;;;;5102089;28;20201;-71
2022/11/01 00:16:17;;;;;;;9.30;5.83;;;13.60;3.70;;;;;;5102489;28;20213;-69
2022/11/01 00:18:44;;;;;;;15.73;6.57;;;14.00;1.00;;;;;;5101067;28;20189;-72
2022/11/01 00:21:12;;;;;;;8.67;5.57;;;14.00;1.00;;;;;;5073464;28;20271;-69
2022/11/01 00:23:40;;;;;;;9.07;4.80;;;14.30;1.00;;;;;;5100892;28;20194;-68
2022/11/01 00:26:08;;;;;;;11.63;5.27;;;14.50;1.00;;;;;;5100694;28;20257;-70
2022/11/01 00:28:35;;;;;;;13.27;5.53;;;14.60;1.00;;;;;;5066840;28;20187;-70
2022/11/01 00:31:02;;;;;;;11.40;4.83;;;14.90;1.00;;;;;;5098857;28;20196;-71
2022/11/01 00:33:35;;;;;;;8.37;4.70;;;15.00;1.00;;;;;;5073435;28;20198;-68
2022/11/01 00:36:03;;;;;;;8.17;4.17;;;15.10;1.00;;;;;;5101916;28;20723;-69
2022/11/01 00:38:30;;;;;;;9.57;4.18;;;15.10;1.00;;;;;;5083174;28;20189;-70
2022/11/01 00:40:57;;;;;;;10.95;4.00;;;15.20;1.00;;;;;;5090664;28;20189;-71
2022/11/01 00:43:24;;;;;;;10.68;4.70;;;15.30;1.00;;;;;;5099042;28;20225;-70
2022/11/01 00:45:51;;;;;;;11.00;4.15;;;15.50;1.00;;;;;;5083007;28;20240;-69
2022/11/01 00:48:18;;;;;;;12.65;4.80;;;15.60;1.00;;;;;;5091444;28;20746;-68
2022/11/01 00:50:45;;;;;;;13.35;4.25;;;15.60;1.00;;;;;;5104395;28;20198;-71
2022/11/01 00:53:12;;;;;;;9.40;4.43;;;15.60;1.00;;;;;;5069859;28;20194;-71
2022/11/01 00:55:40;;;;;;;11.27;4.50;;;15.60;1.00;;;;;;5091615;28;20221;-70
2022/11/01 00:58:07;;;;;;;10.35;4.30;;;15.60;1.00;;;;;;5085250;28;20231;-70
2022/11/01 01:00:35;;;;;;;10.40;4.15;;;15.60;1.00;;;;;;5105648;28;20244;-71
2022/11/01 01:03:03;;;;;;;9.60;4.10;;;15.60;1.00;;;;;;5094192;28;20718;-72
2022/11/01 01:05:32;;;;;;;11.32;4.32;;;15.60;1.00;;;;;;5086355;28;20663;-69
2022/11/01 01:07:59;;;;;;;11.38;4.00;;;15.60;1.00;;;;;;5087438;28;20202;-69
2022/11/01 01:10:26;;;;;;;14.23;4.32;;;15.40;1.00;;;;;;5087004;28;20226;-71
2022/11/01 01:12:53;;;;;;;7.93;4.43;;;15.60;1.00;;;;;;5085197;28;20233;-71
2022/11/01 01:15:20;;;;;;;12.25;4.63;;;15.30;1.00;;;;;;5104913;28;20274;-69
2022/11/01 01:17:47;;;;;;;11.98;3.72;;;15.20;1.00;;;;;;5105833;28;20276;-69
2022/11/01 01:20:14;;;;;;;7.00;3.72;;;15.30;1.00;;;;;;5086905;28;20703;-71
2022/11/01 01:22:41;;;;;;;13.30;4.45;;;15.80;1.00;;;;;;5090884;28;20196;-71
2022/11/01 01:25:09;;;;;;;12.50;4.68;;;15.80;1.00;;;;;;5088365;28;20692;-71
2022/11/01 01:27:38;;;;;;;9.85;3.75;;;16.10;1.00;;;;;;5099362;27;20253;-71
2022/11/01 01:30:08;;;;;;;8.45;4.00;;;16.20;1.00;;;;;;5093825;28;20285;-70
2022/11/01 01:32:35;;;;;;;17.98;3.83;;;16.50;1.00;;;;;;5106339;28;20698;-70
2022/11/01 01:35:03;;;;;;;10.98;3.42;;;16.70;1.00;;;;;;5066916;28;20611;-70
2022/11/01 01:37:30;;;;;;;7.75;3.42;;;16.80;1.00;;;;;;5087392;28;20214;-70
2022/11/01 01:39:57;;;;;;;10.75;3.30;;;16.70;1.00;;;;;;5093880;28;20198;-69
2022/11/01 01:42:31;;;;;;;11.30;3.70;;;16.90;1.00;;;;;;5084121;28;20190;-70
2022/11/01 01:44:58;;;;;;;7.47;3.72;;;17.00;1.00;;;;;;5076196;28;20201;-71
2022/11/01 01:47:29;;;;;;;8.45;3.60;;;17.20;1.00;;;;;;5086761;28;20762;-72
2022/11/01 01:50:09;;;;;;;9.32;3.78;;;17.20;1.00;;;;;;5084498;28;20216;-71
2022/11/01 01:52:51;;;;;;;11.60;3.85;;;17.20;1.00;;;;;;5086861;28;20281;-71
2022/11/01 01:55:24;;;;;;;15.07;7.10;;;17.20;1.00;;;;;;5084298;28;20200;-70
2022/11/01 01:57:53;;;;;;;11.70;4.38;;;17.10;1.00;;;;;;5086338;28;20208;-71
2022/11/01 02:00:20;;;;;;;10.48;5.22;;;17.00;1.00;;;;;;5093132;28;20194;-70
2022/11/01 02:02:47;;;;;;;18.13;7.55;;;17.00;1.00;;;;;;5091782;28;20693;-70
2022/11/01 02:05:39;;;;;;;8.15;4.50;;;17.10;1.00;;;;;;5104019;28;20205;-71
2022/11/01 02:08:07;;;;;;;10.07;3.17;;;17.10;1.00;;;;;;5074730;28;20190;-70
2022/11/01 02:10:34;;;;;;;14.75;4.50;;;17.10;1.00;;;;;;5083798;28;20289;-71
2022/11/01 02:13:01;;;;;;;12.32;4.32;;;17.20;1.00;;;;;;5104148;28;20202;-69
2022/11/01 02:15:37;;;;;;;13.82;5.90;;;17.00;1.00;;;;;;5076494;28;20189;-70
2022/11/01 02:18:45;;;;;;;14.73;7.38;;;17.20;1.00;;;;;;5103986;28;20540;-69
2022/11/01 02:21:12;;;;;;;8.35;3.38;;;17.10;1.00;;;;;;5067049;28;20210;-68
2022/11/01 02:23:58;;;;;;;9.38;3.83;;;17.10;1.00;;;;;;5103591;28;20194;-68
2022/11/01 02:26:25;;;;;;;12.32;3.88;;;16.90;1.00;;;;;;5102229;28;20233;-69
2022/11/01 02:29:25;;;;;;;13.05;4.15;;;16.80;1.00;;;;;;5083817;28;20186;-69
2022/11/01 02:32:33;;;;;;;9.02;3.78;;;16.60;1.00;;;;;;5105257;28;20198;-68
2022/11/01 02:35:11;;;;;;;10.60;4.32;;;16.50;1.00;;;;;;5021593;28;20192;-69
2022/11/01 02:38:00;;;;;;;12.77;4.93;;;16.50;1.00;;;;;;5084241;28;20229;-69
2022/11/01 02:40:53;;;;;;;13.30;4.82;;;16.40;1.00;;;;;;5090686;28;20255;-69
2022/11/01 02:43:53;;;;;;;11.27;5.35;;;16.30;1.00;;;;;;5096483;28;20214;-69
2022/11/01 02:49:10;;;;;;;10.40;4.57;;;16.30;1.00;;;;;;5102158;28;20209;-70
2022/11/01 02:51:38;;;;;;;8.07;4.10;;;16.30;1.00;;;;;;5100192;28;20221;-68
2022/11/01 02:54:09;;;;;;;12.35;4.53;;;16.40;1.00;;;;;;5100481;28;20680;-68
2022/11/01 02:56:38;;;;;;;12.57;4.57;;;16.30;1.00;;;;;;5098756;28;20283;-68
2022/11/01 02:59:11;;;;;;;10.75;3.85;;;16.30;1.00;;;;;;5065298;28;20301;-70
2022/11/01 03:01:41;;;;;;;11.95;3.92;;;16.20;1.00;;;;;;5100019;28;21564;-70
2022/11/01 03:04:08;;;;;;;13.80;5.43;;;16.20;1.00;;;;;;5088703;28;20231;-70
2022/11/01 03:06:42;;;;;;;11.27;4.15;;;16.20;1.00;;;;;;5090384;28;20301;-69
2022/11/01 03:09:12;;;;;;;11.18;4.35;;;16.10;1.00;;;;;;5100996;28;20567;-70
2022/11/01 03:11:53;;;;;;;12.30;4.70;;;16.20;1.00;;;;;;5099555;28;20284;-69
2022/11/01 03:14:40;;;;;;;12.63;4.90;;;16.30;1.00;;;;;;5088940;28;20193;-69
2022/11/01 03:17:15;;;;;;;16.00;6.93;;;16.20;1.00;;;;;;5099689;28;20221;-69
2022/11/01 03:19:46;;;;;;;8.93;4.50;;;16.20;1.00;;;;;;5066890;28;20197;-69
2022/11/01 03:22:34;;;;;;;9.77;4.97;;;16.20;1.00;;;;;;5088392;28;20269;-69
2022/11/01 03:25:37;;;;;;;14.43;4.20;;;16.30;1.00;;;;;;5089111;28;20185;-69
2022/11/01 03:28:27;;;;;;;9.65;4.78;;;16.30;1.00;;;;;;5100862;28;20755;-70
2022/11/01 03:31:10;;;;;;;8.63;4.43;;;16.20;1.00;;;;;;5091096;28;20288;-70
2022/11/01 03:33:45;;;;;;;8.25;4.40;;;16.20;1.00;;;;;;5083129;28;20190;-70
2022/11/01 03:36:16;;;;;;;9.57;4.32;;;16.30;1.00;;;;;;5089868;28;20216;-70
2022/11/01 03:38:58;;;;;;;12.23;4.30;;;16.40;1.00;;;;;;5100819;28;20808;-68
2022/11/01 03:41:27;;;;;;;10.50;4.13;;;16.30;1.00;;;;;;5089094;28;20258;-69
2022/11/01 03:43:55;;;;;;;6.63;3.67;;;16.40;1.00;;;;;;5086137;28;20199;-69
2022/11/01 03:46:22;;;;;;;5.75;3.60;;;16.60;1.00;;;;;;5079778;28;22464;-69
2022/11/01 03:48:49;;;;;;;7.00;3.38;;;16.60;1.00;;;;;;5081194;28;20205;-69
2022/11/01 03:51:16;;;;;;;8.55;3.90;;;16.70;1.00;;;;;;5082289;28;20214;-69
2022/11/01 03:53:45;;;;;;;5.55;3.67;;;16.70;1.00;;;;;;5101310;28;20208;-69
2022/11/01 03:56:13;;;;;;;13.02;4.18;;;16.70;1.00;;;;;;5100582;28;20228;-68
2022/11/01 03:58:44;;;;;;;10.98;3.88;;;16.90;1.00;;;;;;5082891;28;20202;-70
2022/11/01 04:01:13;;;;;;;8.10;3.70;;;17.00;1.00;;;;;;5100321;28;20194;-69
2022/11/01 04:03:40;;;;;;;11.30;3.67;;;16.90;1.00;;;;;;5083062;28;20233;-70
2022/11/01 04:06:08;;;;;;;7.50;3.33;;;16.90;1.00;;;;;;5080933;28;20575;-69
2022/11/01 04:08:38;;;;;;;8.00;3.25;;;16.90;1.00;;;;;;5100755;28;20214;-68
2022/11/01 04:11:05;;;;;;;10.00;3.60;;;17.00;1.00;;;;;;5100431;28;20591;-69
2022/11/01 04:13:32;;;;;;;8.57;3.25;;;17.00;1.00;;;;;;5100188;28;20185;-70
2022/11/01 04:21:31;;;;;;;5.03;3.17;;;17.20;1.00;;;;;;5100383;28;22812;-70
2022/11/01 04:23:57;;;;;;;7.40;3.42;;;17.20;1.00;;;;;;5086973;28;20197;-69
2022/11/01 04:26:25;;;;;;;9.60;3.60;;;17.20;1.00;;;;;;5105229;28;20757;-70
2022/11/01 04:28:58;;;;;;;9.98;3.55;;;17.30;1.00;;;;;;5104298;28;20209;-70
2022/11/01 04:31:30;;;;;;;5.13;2.90;;;17.30;1.00;;;;;;5106945;28;20218;-69
2022/11/01 04:33:58;;;;;;;5.85;3.42;;;17.30;1.00;;;;;;5087897;28;20201;-70
2022/11/01 04:36:26;;;;;;;5.88;3.13;;;17.30;1.00;;;;;;5086868;28;20229;-69
2022/11/01 04:38:54;;;;;;;11.55;3.08;;;17.20;1.00;;;;;;5085803;28;20274;-69
2022/11/01 04:41:23;;;;;;;6.38;3.35;;;17.30;1.00;;;;;;5100689;28;20220;-70
2022/11/01 04:43:52;;;;;;;6.57;3.10;;;17.30;1.00;;;;;;5085367;28;20207;-70
2022/11/01 04:46:20;;;;;;;8.95;3.10;;;17.30;1.00;;;;;;5085961;28;20194;-69
2022/11/01 04:48:48;;;;;;;5.25;2.88;;;17.40;1.00;;;;;;5071185;28;20224;-69
2022/11/01 04:51:15;;;;;;;5.40;3.00;;;17.40;1.00;;;;;;5070234;28;20217;-69
2022/11/01 04:53:42;;;;;;;6.95;3.53;;;17.30;1.00;;;;;;5086330;28;20691;-69
2022/11/01 04:56:12;;;;;;;7.25;3.28;;;17.30;1.00;;;;;;5084288;28;20653;-70
2022/11/01 04:58:39;;;;;;;7.45;3.08;;;17.40;1.00;;;;;;5103042;28;20182;-69
2022/11/01 05:01:13;;;;;;;7.15;3.30;;;17.30;1.00;;;;;;5087978;28;20190;-68
2022/11/01 05:03:41;;;;;;;10.68;3.60;;;17.20;1.00;;;;;;5103019;28;20194;-69
2022/11/01 05:06:10;;;;;;;8.98;3.50;;;17.20;1.00;;;;;;5085420;28;20198;-69
2022/11/01 05:08:37;;;;;;;7.95;3.88;;;17.20;1.00;;;;;;5101238;28;20229;-68
2022/11/01 05:11:04;;;;;;;8.30;5.05;;;17.20;1.00;;;;;;5104219;28;20181;-67
2022/11/01 05:13:34;;;;;;;6.95;3.30;;;17.10;1.00;;;;;;5085885;28;20190;-69
2022/11/01 05:16:02;;;;;;;9.35;3.70;;;17.20;1.00;;;;;;5085997;28;20193;-68
2022/11/01 05:18:45;;;;;;;10.95;4.70;;;17.20;1.00;;;;;;5093660;28;20685;-68
2022/11/01 05:21:14;;;;;;;5.75;3.22;;;17.30;1.00;;;;;;5084905;28;20705;-68
2022/11/01 05:23:41;;;;;;;6.60;3.20;;;17.30;1.00;;;;;;5103842;28;20194;-69
2022/11/01 05:26:09;;;;;;;6.60;3.20;;;17.20;1.00;;;;;;5102721;28;20242;-68
2022/11/01 05:28:36;;;;;;;7.32;3.35;;;17.30;1.00;;;;;;5104588;28;20193;-69
2022/11/01 05:31:03;;;;;;;9.25;3.30;;;17.20;1.00;;;;;;5104604;28;20696;-68
2022/11/01 05:33:30;;;;;;;8.18;3.65;;;17.10;1.00;;;;;;5104190;28;20187;-69
2022/11/01 05:35:59;;;;;;;7.32;3.63;;;17.10;1.00;;;;;;5103185;28;20698;-68
2022/11/01 05:38:26;;;;;;;6.40;3.50;;;17.10;1.00;;;;;;5086946;28;20221;-68
2022/11/01 05:40:53;;;;;;;12.30;3.58;;;17.10;1.00;;;;;;5092485;28;20556;-69
2022/11/01 05:43:20;;;;;;;8.05;3.45;;;17.10;1.00;;;;;;5102789;28;20830;-68
2022/11/01 05:45:47;;;;;;;7.53;3.75;;;17.00;1.00;;;;;;5103195;28;20276;-68
2022/11/01 05:48:14;;;;;;;8.20;3.40;;;17.00;1.00;;;;;;5101783;28;20199;-66
2022/11/01 05:50:43;;;;;;;6.50;3.08;;;17.00;1.00;;;;;;5083293;28;20686;-67
2022/11/01 05:53:13;;;;;;;6.65;3.30;;;17.00;1.00;;;;;;5100979;28;20198;-70
2022/11/01 05:55:40;;;;;;;7.22;3.40;;;16.90;1.00;;;;;;5102356;28;20214;-67
2022/11/01 05:58:08;;;;;;;6.78;3.83;;;16.90;1.00;;;;;;5102813;28;20214;-68
2022/11/01 06:00:35;;;;;;;6.10;3.42;;;16.80;1.00;;;;;;5102451;28;20190;-70
2022/11/01 06:03:03;;;;;;;5.18;3.47;;;16.70;1.00;;;;;;5084546;28;20737;-69
2022/11/01 06:05:31;;;;;;;7.28;3.38;;;16.70;1.00;;;;;;5100941;28;20304;-70
2022/11/01 06:08:01;;;;;;;6.15;3.50;;;16.60;1.00;;;;;;5085796;28;20197;-68
2022/11/01 06:10:28;;;;;;;9.40;3.70;;;16.60;1.00;;;;;;5093926;28;20284;-67
2022/11/01 06:12:55;;;;;;;11.43;3.80;;;16.50;1.00;;;;;;5087690;28;20201;-70
2022/11/01 06:15:22;;;;;;;11.60;3.60;;;16.40;1.00;;;;;;5087560;28;20212;-68
2022/11/01 06:17:57;;;;;;;7.47;3.30;;;16.40;1.00;;;;;;5076531;28;20708;-69
2022/11/01 06:20:25;;;;;;;8.63;3.90;;;16.40;1.00;;;;;;5086466;28;20537;-67
2022/11/01 06:22:52;;;;;;;7.55;3.92;;;16.50;1.00;;;;;;5091808;28;20255;-67
2022/11/01 06:25:19;;;;;;;5.45;3.38;;;16.50;1.00;;;;;;5089550;28;20197;-70
2022/11/01 06:27:47;;;;;;;12.35;3.50;;;16.60;1.00;;;;;;5085323;28;20257;-69
2022/11/01 06:30:14;;;;;;;5.45;3.40;;;16.50;1.00;;;;;;5079601;28;20217;-69
2022/11/01 06:32:41;;;;;;;11.38;4.22;;;16.60;1.00;;;;;;5061317;28;20726;-69
2022/11/01 06:35:09;;;;;;;7.63;3.38;;;16.60;1.00;;;;;;5054681;28;20206;-70
2022/11/01 06:37:37;;;;;;;6.68;3.67;;;16.50;1.00;;;;;;5082139;28;20228;-69
2022/11/01 06:40:05;;;;;;;9.48;3.58;;;16.60;1.00;;;;;;5063570;28;20193;-68
2022/11/01 06:42:32;;;;;;;10.50;3.50;;;16.60;1.00;;;;;;5081035;28;20190;-68
2022/11/01 06:44:59;;;;;;;5.00;3.05;;;16.80;1.00;;;;;;5063249;28;20317;-67
2022/11/01 06:47:26;;;;;;;10.77;3.65;;;16.90;1.00;;;;;;5062604;28;20207;-67
2022/11/01 06:49:53;;;;;;;10.77;3.60;;;16.90;1.00;;;;;;5076350;28;20680;-67
2022/11/01 06:52:20;;;;;;;7.03;3.15;;;16.80;1.00;;;;;;5064363;28;20206;-67
2022/11/01 06:54:47;;;;;;;7.28;3.53;;;16.80;1.00;;;;;;5064341;28;20200;-69
2022/11/01 06:57:14;;;;;;;4.82;2.95;;;16.80;1.00;;;;;;5061967;28;20737;-70
2022/11/01 06:59:41;;;;;;;6.55;3.75;;;16.80;1.00;;;;;;5080503;28;20239;-68
2022/11/01 07:02:09;;;;;;;9.30;3.47;;;16.90;1.00;;;;;;5081357;28;20202;-68
2022/11/01 07:04:40;;;;;;;7.15;3.05;;;16.80;1.00;;;;;;5080074;28;20194;-69
2022/11/01 07:07:07;;;;;;;6.75;3.05;;;16.80;1.00;;;;;;5063812;28;20225;-68
2022/11/01 07:09:36;;;;;;;8.70;3.30;;;16.70;1.00;;;;;;5080978;28;20596;-68
2022/11/01 07:12:03;;;;;;;8.38;3.35;;;16.80;1.00;;;;;;5064015;28;20195;-68
2022/11/01 07:14:31;;;;;;;8.20;3.63;;;16.80;1.00;;;;;;5063255;28;20292;-67
2022/11/01 07:16:58;;;;;;;5.47;4.07;;;16.70;1.00;;;;;;5083749;28;20210;-68
2022/11/01 07:19:24;;;;;;;8.57;3.38;;;16.80;1.00;;;;;;5063064;28;20655;-68
2022/11/01 07:21:51;;;;;;;5.43;3.42;;;16.80;1.00;;;;;;5064094;28;20556;-68
2022/11/01 07:24:18;;;;;;;6.78;2.95;;;16.80;1.00;;;;;;5063682;28;20313;-68
2022/11/01 07:26:46;;;;;;;9.90;3.40;;;16.80;1.00;;;;;;5054498;28;20233;-68
2022/11/01 07:29:12;;;;;;;7.95;3.42;;;16.80;1.00;;;;;;5088774;28;20214;-68
2022/11/01 07:31:40;;;;;;;5.28;2.72;;;16.90;1.00;;;;;;5071307;28;20242;-68
2022/11/01 07:34:08;;;;;;;10.90;3.55;;;16.90;1.00;;;;;;5089271;28;20199;-68
2022/11/01 07:36:35;;;;;;;7.15;3.30;;;16.90;1.00;;;;;;5062682;28;20740;-68
2022/11/01 07:39:02;;;;;;;7.40;3.35;;;16.90;1.00;;;;;;5071954;28;20582;-68
2022/11/01 07:41:29;;;;;;;8.32;3.10;;;16.90;1.00;;;;;;5073498;28;20209;-72
2022/11/01 07:43:57;;;;;;;7.40;3.50;;;17.00;1.00;;;;;;5088880;28;20202;-70
2022/11/01 07:46:24;;;;;;;6.78;2.63;;;17.00;1.00;;;;;;5063373;28;20227;-71
2022/11/01 07:48:51;;;;;;;5.35;2.75;;;17.00;1.00;;;;;;5070500;28;20225;-71
2022/11/01 07:51:18;;;;;;;5.15;2.63;;;17.10;1.00;;;;;;5067061;28;20214;-72
2022/11/01 07:53:45;;;;;;;4.97;2.03;;;17.10;1.00;;;;;;5070870;28;20705;-73
2022/11/01 07:56:12;;;;;;;4.10;2.00;;;17.10;1.00;;;;;;5071590;28;20205;-74
2022/11/01 07:58:42;;;;;;;5.63;2.08;;;17.00;1.00;;;;;;5090875;28;20218;-73
2022/11/01 08:01:09;;;;;;;3.80;2.25;;;17.00;1.00;;;;;;5065500;28;20202;-72
2022/11/01 08:03:37;;;;;;;5.55;1.75;;;17.10;1.00;;;;;;5073437;28;20210;-72
2022/11/01 08:06:04;;;;;;;5.63;2.17;;;17.10;1.00;;;;;;5088610;28;20717;-71
2022/11/01 08:08:31;;;;;;;9.50;2.00;;;17.10;1.00;;;;;;5067508;28;20491;-67
2022/11/01 08:11:00;;;;;;;5.18;1.80;;;17.00;1.00;;;;;;5090448;28;20281;-67
2022/11/01 08:13:27;;;;;;;3.22;1.40;;;16.90;1.00;;;;;;5073324;28;20202;-74
2022/11/01 08:15:55;;;;;;;3.40;1.70;;;16.90;1.00;;;;;;5093675;28;20875;-74
2022/11/01 08:18:23;;;;;;;6.80;1.48;;;16.70;1.00;;;;;;5093824;28;20309;-74
2022/11/01 08:20:50;;;;;;;4.93;1.60;;;16.70;1.00;;;;;;5091906;28;20186;-72
2022/11/01 08:23:17;;;;;;;4.57;1.08;;;16.70;1.00;;;;;;5075624;28;20537;-72
2022/11/01 08:25:45;;;;;;;4.68;1.67;;;16.60;1.00;;;;;;5072408;28;20290;-74
2022/11/01 08:28:14;;;;;;;5.32;1.30;;;16.50;1.00;;;;;;5084144;28;20199;-70
2022/11/01 08:30:43;;;;;;;4.78;1.05;;;16.40;1.00;;;;;;5082328;28;20194;-69
2022/11/01 08:33:10;;;;;;;2.72;1.30;;;16.40;1.00;;;;;;5066071;28;20202;-70
2022/11/01 08:35:37;;;;;;;4.82;1.63;;;16.40;1.00;;;;;;5082869;28;20206;-71
2022/11/01 08:38:04;;;;;;;10.13;1.67;;;16.50;1.00;;;;;;5082875;28;20206;-71
2022/11/01 08:40:32;;;;;;;4.50;1.63;;;16.50;1.00;;;;;;5073579;28;20567;-71
2022/11/01 08:42:59;;;;;;;3.72;1.15;;;16.40;1.00;;;;;;5085561;28;20202;-74
2022/11/01 08:45:27;;;;;;;4.22;1.55;;;16.50;1.00;;;;;;5066843;28;20210;-72
2022/11/01 08:48:03;;;;;;;3.25;1.25;;;16.60;1.00;;;;;;5081341;28;20267;-74
2022/11/01 08:50:35;;;;;;;2.25;1.30;;;16.60;1.00;;;;;;5064864;28;20229;-72
2022/11/01 08:53:06;;;;;;;6.30;1.48;;;17.30;1.00;;;;;;5065082;28;20253;-72
2022/11/01 08:55:35;;;;;;;3.88;1.10;;;21.70;1.00;;;;;;5079260;28;20191;-73
2022/11/01 08:58:05;;;;;;;4.95;1.33;;;25.40;1.00;;;;;;5067375;28;20214;-69
2022/11/01 09:00:33;;;;;;;3.90;1.52;;;27.90;1.00;;;;;;5076968;28;20301;-71
2022/11/01 09:03:00;;;;;;;3.42;1.25;;;27.20;1.00;;;;;;5063798;28;20204;-70
2022/11/01 09:05:30;;;;;;;4.65;1.17;;;27.80;1.00;;;;;;5065801;28;20230;-71
2022/11/01 09:07:58;;;;;;;2.33;1.08;;;29.30;1.00;;;;;;5080905;28;20219;-69
2022/11/01 09:10:29;;;;;;;5.75;1.23;;;30.00;1.00;;;;;;5068407;28;20229;-69
2022/11/01 09:12:59;;;;;;;7.05;1.42;;;28.50;1.00;;;;;;5068152;28;20202;-68
2022/11/01 09:15:27;;;;;;;2.67;1.35;;;27.40;1.00;;;;;;5067373;28;20270;-69
2022/11/01 09:17:54;;;;;;;4.65;1.85;;;28.60;1.00;;;;;;5072667;28;20227;-69
2022/11/01 09:20:22;;;;;;;3.80;1.42;;;29.60;1.00;;;;;;5069999;28;20217;-67
2022/11/01 09:22:53;;;;;;;3.42;1.70;;;28.40;1.00;;;;;;5067255;28;20195;-68
2022/11/01 09:25:20;;;;;;;3.92;1.30;;;29.50;1.00;;;;;;5053285;28;20293;-68
2022/11/01 09:27:47;;;;;;;2.92;1.20;;;30.60;1.00;;;;;;5103051;28;20726;-69
2022/11/01 09:30:14;;;;;;;4.63;2.10;;;30.90;1.00;;;;;;5076927;28;20193;-67
2022/11/01 09:32:41;;;;;;;4.95;2.00;;;29.10;1.00;;;;;;5103726;28;20218;-69
2022/11/01 09:35:08;;;;;;;4.65;2.05;;;29.40;1.00;;;;;;5085343;28;20297;-69
2022/11/01 09:37:35;;;;;;;6.07;2.10;;;27.90;1.00;;;;;;5103646;28;20684;-67
2022/11/01 09:40:03;;;;;;;6.32;3.15;;;27.30;1.00;;;;;;5093466;28;20260;-69
2022/11/01 09:42:42;;;;;;;7.05;2.13;;;28.00;1.00;;;;;;5086601;28;20194;-69
2022/11/01 09:45:17;;;;;;;4.95;2.30;;;29.10;1.00;;;;;;5104189;28;20198;-70
2022/11/01 09:47:49;;;;;;;5.60;2.35;;;29.10;1.00;;;;;;5104502;28;20224;-70
2022/11/01 09:50:25;;;;;;;4.28;1.60;;;29.20;1.00;;;;;;5079464;28;20562;-69
2022/11/01 09:52:54;;;;;;;6.18;2.88;;;28.50;1.00;;;;;;5086655;28;20186;-70
2022/11/01 09:55:33;;;;;;;8.02;3.15;;;30.80;1.00;;;;;;5102748;28;20267;-69
2022/11/01 09:58:20;;;;;;;6.78;3.10;;;27.60;1.00;;;;;;5103721;28;20212;-69
2022/11/01 10:01:04;;;;;;;9.68;2.40;;;30.00;1.00;;;;;;5077136;28;20270;-70
2022/11/01 10:03:48;;;;;;;6.50;2.60;;;29.50;1.00;;;;;;5086884;28;20207;-70
2022/11/01 10:06:30;;;;;;;11.82;2.65;;;31.40;1.00;;;;;;5102017;28;20205;-70
2022/11/01 10:09:36;;;;;;;8.27;3.25;;;28.80;1.00;;;;;;5104185;28;20326;-70
2022/11/01 10:12:12;;;;;;;8.65;2.40;;;30.30;1.00;;;;;;5083725;28;20197;-68
2022/11/01 10:15:08;;;;;;;6.78;2.47;;;31.50;1.00;;;;;;5086155;28;20226;-70
2022/11/01 10:17:38;;;;;;;7.55;2.65;;;31.60;1.00;;;;;;5059103;28;20206;-70
2022/11/01 10:20:10;;;;;;;5.97;2.50;;;31.20;1.00;;;;;;5084235;28;20190;-69
2022/11/01 10:22:42;;;;;;;7.63;2.20;;;31.00;1.00;;;;;;5084829;28;20559;-69
2022/11/01 10:25:25;;;;;;;9.45;2.80;;;28.50;1.00;;;;;;5103939;28;20185;-69
2022/11/01 10:28:20;;;;;;;11.43;2.88;;;27.30;1.00;;;;;;5105436;28;20283;-68
2022/11/01 10:30:55;;;;;;;16.27;4.00;;;26.90;1.00;;;;;;5090647;28;20268;-70
2022/11/01 10:33:34;;;;;;;14.43;5.53;;;25.60;1.00;;;;;;5104225;28;20228;-71
2022/11/01 10:36:08;;;;;;;9.13;4.18;;;26.20;1.00;;;;;;5086704;28;20214;-70
2022/11/01 10:38:46;;;;;;;9.65;3.60;;;26.50;1.00;;;;;;5089684;28;20245;-71
2022/11/01 10:41:46;;;;;;;14.85;3.35;;;26.40;1.00;;;;;;5087052;28;20270;-69
2022/11/01 10:44:28;;;;;;;8.73;2.92;;;24.80;1.00;;;;;;5104710;28;20767;-70
2022/11/01 10:46:57;;;;;;;12.00;2.80;;;25.90;1.00;;;;;;5098788;28;20352;-70
2022/11/01 10:49:27;;;;;;;11.85;4.38;;;26.80;1.00;;;;;;5090270;28;20202;-71
2022/11/01 10:52:21;;;;;;;12.32;4.68;;;27.80;1.00;;;;;;5099652;28;20190;-70
2022/11/01 10:54:51;;;;;;;7.97;2.78;;;28.50;1.00;;;;;;5082011;28;20233;-72
2022/11/01 10:57:37;;;;;;;8.70;2.58;;;27.80;1.00;;;;;;5084915;28;20321;-70
2022/11/01 11:00:13;;;;;;;9.75;3.08;;;27.30;1.00;;;;;;5084328;28;20193;-70
2022/11/01 11:02:45;;;;;;;16.02;3.50;;;26.60;1.00;;;;;;5086735;28;20226;-71
2022/11/01 11:05:14;;;;;;;9.68;2.95;;;26.30;1.00;;;;;;5100822;28;20193;-69
2022/11/01 11:07:43;;;;;;;7.50;2.63;;;25.20;1.00;;;;;;5103110;28;20627;-72
2022/11/01 11:10:28;;;;;;;11.80;2.80;;;25.30;1.00;;;;;;5051701;28;20186;-70
2022/11/01 11:13:04;;;;;;;11.15;2.72;;;24.40;1.00;;;;;;5101045;28;20189;-69
2022/11/01 11:15:49;;;;;;;8.93;2.80;;;24.40;1.00;;;;;;5099371;27;20397;-70
2022/11/01 11:18:34;;;;;;;11.35;2.72;;;25.60;1.00;;;;;;5097166;28;20719;-69
2022/11/01 11:21:10;;;;;;;11.45;2.67;;;27.40;1.00;;;;;;5100386;28;20548;-70
2022/11/01 11:23:44;;;;;;;8.88;2.42;;;27.40;1.00;;;;;;5075067;28;20207;-70
2022/11/01 11:26:17;;;;;;;9.68;2.45;;;26.80;1.00;;;;;;5099894;28;20821;-71
2022/11/01 11:28:51;;;;;;;9.23;2.67;;;26.80;1.00;;;;;;5099667;28;20201;-70
2022/11/01 11:31:27;;;;;;;6.68;2.25;;;27.70;1.00;;;;;;5101914;28;20219;-69
2022/11/01 11:34:21;;;;;;;7.80;2.10;;;27.10;1.00;;;;;;5099555;28;20204;-70
2022/11/01 11:36:48;;;;;;;6.63;2.28;;;25.30;1.00;;;;;;5084973;28;20665;-69
2022/11/01 11:39:25;;;;;;;9.85;2.55;;;24.90;1.00;;;;;;5070549;28;20218;-71
2022/11/01 11:42:11;;;;;;;10.82;2.47;;;25.80;1.00;;;;;;5088251;28;20276;-72
2022/11/01 11:44:40;;;;;;;11.60;2.70;;;25.20;1.00;;;;;;5101525;28;20301;-73
2022/11/01 11:47:27;;;;;;;9.60;2.60;;;24.40;1.00;;;;;;5085057;28;20190;-72
2022/11/01 11:49:57;;;;;;;9.52;2.63;;;23.40;1.00;;;;;;5090314;28;20657;-70
2022/11/01 11:52:34;;;;;;;9.82;2.65;;;23.00;1.00;;;;;;5102680;28;20185;-71
2022/11/01 11:55:24;;;;;;;9.63;2.40;;;22.60;1.00;;;;;;5101209;28;20200;-70
2022/11/01 11:57:53;;;;;;;9.45;2.63;;;22.50;1.00;;;;;;5102175;28;20630;-68
2022/11/01 12:00:25;;;;;;;7.07;2.63;;;22.80;1.00;;;;;;5092163;28;20185;-68
2022/11/01 12:02:52;;;;;;;15.20;2.92;;;23.30;1.00;;;;;;5080466;28;20204;-69
2022/11/01 12:05:22;;;;;;;7.38;2.63;;;21.40;1.00;;;;;;5096574;28;20661;-69
2022/11/01 12:07:51;;;;;;;7.50;2.33;;;22.20;1.00;;;;;;5070965;28;20194;-69
2022/11/01 12:10:29;;;;;;;7.60;2.35;;;22.80;1.00;;;;;;5079792;28;20194;-70
2022/11/01 12:12:56;;;;;;;11.93;2.95;;;22.60;1.00;;;;;;5100977;28;20193;-69
2022/11/01 12:15:26;;;;;;;10.07;2.88;;;22.90;1.00;;;;;;5099449;28;20187;-69
2022/11/01 12:17:55;;;;;;;10.20;2.28;;;22.30;1.00;;;;;;5084254;28;22026;-68
2022/11/01 12:20:25;;;;;;;13.55;4.32;;;21.40;1.00;;;;;;5083697;28;20225;-68
2022/11/01 12:23:28;;;;;;;9.43;2.20;;;21.80;1.00;;;;;;5099665;28;20194;-67
2022/11/01 12:25:59;;;;;;;11.65;2.70;;;22.10;1.00;;;;;;5072038;28;20220;-68
2022/11/01 12:28:41;;;;;;;7.40;2.88;;;22.70;1.00;;;;;;5069028;28;20293;-67
2022/11/01 12:31:18;;;;;;;11.43;3.60;;;21.50;1.00;;;;;;5099130;28;20193;-67
2022/11/01 12:34:05;;;;;;;11.68;2.60;;;21.60;1.00;;;;;;5100661;28;20197;-69
2022/11/01 12:36:42;;;;;;;8.15;2.55;;;21.90;1.00;;;;;;5102864;28;20225;-68
2022/11/01 12:39:48;;;;;;;9.15;2.67;;;21.50;1.00;;;;;;5070659;28;20262;-68
2022/11/01 12:42:23;;;;;;;7.72;2.70;;;21.40;1.00;;;;;;5089064;28;20292;-67
2022/11/01 12:44:55;;;;;;;6.88;2.88;;;21.20;1.00;;;;;;5102159;28;20194;-69
2022/11/01 12:47:30;;;;;;;12.43;3.03;;;21.20;1.00;;;;;;5093425;28;20272;-68
2022/11/01 12:50:02;;;;;;;9.93;2.58;;;21.00;1.00;;;;;;5086516;28;20205;-68
2022/11/01 12:52:35;;;;;;;9.73;2.28;;;21.10;1.00;;;;;;5091342;28;20189;-68
2022/11/01 12:55:16;;;;;;;11.55;2.63;;;20.30;1.00;;;;;;5103928;28;20194;-68
2022/11/01 12:57:47;;;;;;;9.55;2.80;;;20.40;1.00;;;;;;5093787;28;20552;-67
2022/11/01 13:00:15;;;;;;;10.35;2.42;;;20.50;1.00;;;;;;5091313;28;20206;-68
2022/11/01 13:02:48;;;;;;;10.40;2.17;;;20.20;1.00;;;;;;5070202;28;20209;-67
2022/11/01 13:05:34;;;;;;;10.23;2.17;;;19.70;1.00;;;;;;5085962;28;20257;-67
2022/11/01 13:08:16;;;;;;;6.10;1.95;;;19.80;1.00;;;;;;5085471;28;20201;-67
2022/11/01 13:10:46;;;;;;;8.30;2.72;;;19.50;1.00;;;;;;5102955;28;20214;-69
2022/11/01 13:13:36;;;;;;;8.95;2.53;;;19.30;1.00;;;;;;5103383;28;20318;-69
2022/11/01 13:16:15;;;;;;;7.20;2.33;;;19.60;1.00;;;;;;5094484;28;20236;-69
2022/11/01 13:18:58;;;;;;;8.07;2.03;;;19.40;1.00;;;;;;5086277;28;20209;-69
2022/11/01 13:21:48;;;;;;;7.38;2.35;;;19.10;1.00;;;;;;5092056;28;20305;-68
2022/11/01 13:24:52;;;;;;;7.82;2.67;;;19.10;1.00;;;;;;5104106;28;20482;-69
2022/11/01 13:27:36;;;;;;;9.15;2.20;;;19.30;1.00;;;;;;5086691;28;20228;-69